Search for airport 
image banner adimage banner adimage banner ad
image banner ad

KBWC - Brawley Muni

Located in Brawley, United States

ICAO - BWC, IATA - BWC

Data provided by Airmate  

General information

Coordinates: N32°59'35" W115°31'2"
Elevation is -128 feet MSL.
Magnetic variation is 13° East
View others Airports in California

Operational data

Special qualification required
Current time UTC:
Current local time:
Weather at : KIPL - Imperial County ( 19 km )
METAR: KIPL 210253Z AUTO 32003KT 10SM CLR 31/11 A2983 RMK AO2 SLP102 T03110106 53011
TAF: KIPL 202320Z 2100/2124 VRB05KT P6SM SKC
View NOTAMs / SUP AIP / TFR affecting this airport [VIEW]
Communications frequencies: [VIEW]

Runways:

RWY identifierQFULength (ft)Width (ft)SurfaceLDA (ft)
0890°416660ASPH
26270°416660ASPH

Airport contact information

Address: Brawley United States

Satellite view of KBWC